sensor_id;sensor_type;location;lat;lon;timestamp;P1;durP1;ratioP1;P2;durP2;ratioP2
583;SDS011;27024;54.068;12.116;2023-03-11T00:00:35;7.05;;;3.00;;
583;SDS011;27024;54.068;12.116;2023-03-11T00:03:04;6.55;;;2.15;;
583;SDS011;27024;54.068;12.116;2023-03-11T00:05:34;5.40;;;1.75;;
583;SDS011;27024;54.068;12.116;2023-03-11T00:08:04;7.20;;;2.58;;
583;SDS011;27024;54.068;12.116;2023-03-11T00:10:37;5.07;;;2.40;;
583;SDS011;27024;54.068;12.116;2023-03-11T00:13:07;4.70;;;2.50;;
583;SDS011;27024;54.068;12.116;2023-03-11T00:15:36;6.22;;;3.58;;
583;SDS011;27024;54.068;12.116;2023-03-11T00:18:04;6.35;;;2.67;;
583;SDS011;27024;54.068;12.116;2023-03-11T00:20:35;7.07;;;3.13;;
583;SDS011;27024;54.068;12.116;2023-03-11T00:23:05;6.57;;;3.03;;
583;SDS011;27024;54.068;12.116;2023-03-11T00:25:33;6.75;;;3.13;;
583;SDS011;27024;54.068;12.116;2023-03-11T00:28:03;8.98;;;3.40;;
583;SDS011;27024;54.068;12.116;2023-03-11T00:30:32;8.07;;;2.63;;
583;SDS011;27024;54.068;12.116;2023-03-11T00:32:59;6.65;;;3.13;;
583;SDS011;27024;54.068;12.116;2023-03-11T00:35:27;6.13;;;3.13;;
583;SDS011;27024;54.068;12.116;2023-03-11T00:37:57;7.03;;;3.17;;
583;SDS011;27024;54.068;12.116;2023-03-11T00:40:27;8.77;;;2.72;;
583;SDS011;27024;54.068;12.116;2023-03-11T00:42:55;8.85;;;3.25;;
583;SDS011;27024;54.068;12.116;2023-03-11T00:45:22;5.40;;;2.45;;
583;SDS011;27024;54.068;12.116;2023-03-11T00:47:50;8.00;;;2.97;;
583;SDS011;27024;54.068;12.116;2023-03-11T00:50:28;10.20;;;4.10;;
583;SDS011;27024;54.068;12.116;2023-03-11T00:52:58;11.70;;;3.80;;
583;SDS011;27024;54.068;12.116;2023-03-11T00:55:27;7.97;;;3.55;;
583;SDS011;27024;54.068;12.116;2023-03-11T00:57:57;9.30;;;3.88;;
583;SDS011;27024;54.068;12.116;2023-03-11T01:00:26;6.80;;;3.10;;
583;SDS011;27024;54.068;12.116;2023-03-11T01:02:54;10.65;;;4.03;;
583;SDS011;27024;54.068;12.116;2023-03-11T01:05:25;9.02;;;3.88;;
583;SDS011;27024;54.068;12.116;2023-03-11T01:07:54;12.05;;;3.92;;
583;SDS011;27024;54.068;12.116;2023-03-11T01:10:21;7.13;;;3.63;;
583;SDS011;27024;54.068;12.116;2023-03-11T01:12:48;8.57;;;3.70;;
583;SDS011;27024;54.068;12.116;2023-03-11T01:15:31;8.57;;;4.32;;
583;SDS011;27024;54.068;12.116;2023-03-11T01:18:01;9.07;;;3.22;;
583;SDS011;27024;54.068;12.116;2023-03-11T01:20:29;12.02;;;4.32;;
583;SDS011;27024;54.068;12.116;2023-03-11T01:22:56;10.15;;;4.18;;
583;SDS011;27024;54.068;12.116;2023-03-11T01:25:23;10.40;;;4.13;;
583;SDS011;27024;54.068;12.116;2023-03-11T01:27:50;10.38;;;4.43;;
583;SDS011;27024;54.068;12.116;2023-03-11T01:30:19;9.70;;;4.78;;
583;SDS011;27024;54.068;12.116;2023-03-11T01:32:47;10.30;;;4.05;;
583;SDS011;27024;54.068;12.116;2023-03-11T01:35:16;9.05;;;4.32;;
583;SDS011;27024;54.068;12.116;2023-03-11T01:37:44;8.15;;;4.13;;
583;SDS011;27024;54.068;12.116;2023-03-11T01:40:46;7.85;;;3.90;;
583;SDS011;27024;54.068;12.116;2023-03-11T01:46:08;8.07;;;4.00;;
583;SDS011;27024;54.068;12.116;2023-03-11T01:48:44;10.13;;;4.72;;
583;SDS011;27024;54.068;12.116;2023-03-11T01:51:16;10.38;;;4.15;;
583;SDS011;27024;54.068;12.116;2023-03-11T01:54:23;8.43;;;3.92;;
583;SDS011;27024;54.068;12.116;2023-03-11T01:56:57;12.02;;;4.00;;
583;SDS011;27024;54.068;12.116;2023-03-11T01:59:26;9.77;;;3.50;;
583;SDS011;27024;54.068;12.116;2023-03-11T02:04:49;7.55;;;3.50;;
583;SDS011;27024;54.068;12.116;2023-03-11T02:07:17;11.68;;;4.03;;
583;SDS011;27024;54.068;12.116;2023-03-11T02:09:45;10.32;;;3.53;;
583;SDS011;27024;54.068;12.116;2023-03-11T02:12:12;6.55;;;2.60;;
583;SDS011;27024;54.068;12.116;2023-03-11T02:14:47;7.45;;;3.30;;
583;SDS011;27024;54.068;12.116;2023-03-11T02:17:17;7.28;;;3.70;;
583;SDS011;27024;54.068;12.116;2023-03-11T02:19:58;9.20;;;4.00;;
583;SDS011;27024;54.068;12.116;2023-03-11T02:22:52;7.35;;;3.13;;
583;SDS011;27024;54.068;12.116;2023-03-11T02:25:36;6.40;;;2.75;;
583;SDS011;27024;54.068;12.116;2023-03-11T02:28:25;7.38;;;2.10;;
583;SDS011;27024;54.068;12.116;2023-03-11T02:30:53;8.10;;;2.40;;
583;SDS011;27024;54.068;12.116;2023-03-11T02:33:23;7.15;;;3.28;;
583;SDS011;27024;54.068;12.116;2023-03-11T02:35:55;6.40;;;2.08;;
583;SDS011;27024;54.068;12.116;2023-03-11T02:38:23;5.80;;;2.30;;
583;SDS011;27024;54.068;12.116;2023-03-11T02:40:57;5.60;;;2.33;;
583;SDS011;27024;54.068;12.116;2023-03-11T02:43:41;4.65;;;1.88;;
583;SDS011;27024;54.068;12.116;2023-03-11T02:46:10;4.13;;;1.45;;
583;SDS011;27024;54.068;12.116;2023-03-11T02:48:40;4.75;;;2.22;;
583;SDS011;27024;54.068;12.116;2023-03-11T02:51:07;4.22;;;2.25;;
583;SDS011;27024;54.068;12.116;2023-03-11T02:53:36;4.63;;;1.85;;
583;SDS011;27024;54.068;12.116;2023-03-11T02:56:06;4.60;;;1.90;;
583;SDS011;27024;54.068;12.116;2023-03-11T02:58:33;7.18;;;1.90;;
583;SDS011;27024;54.068;12.116;2023-03-11T03:01:00;4.10;;;2.10;;
583;SDS011;27024;54.068;12.116;2023-03-11T03:03:29;8.23;;;2.38;;
583;SDS011;27024;54.068;12.116;2023-03-11T03:05:55;4.85;;;1.95;;
583;SDS011;27024;54.068;12.116;2023-03-11T03:08:23;6.43;;;1.83;;
583;SDS011;27024;54.068;12.116;2023-03-11T03:10:49;5.07;;;1.88;;
583;SDS011;27024;54.068;12.116;2023-03-11T03:13:16;4.50;;;2.63;;
583;SDS011;27024;54.068;12.116;2023-03-11T03:15:43;7.07;;;3.17;;
583;SDS011;27024;54.068;12.116;2023-03-11T03:18:10;7.53;;;1.95;;
583;SDS011;27024;54.068;12.116;2023-03-11T03:20:37;6.53;;;2.10;;
583;SDS011;27024;54.068;12.116;2023-03-11T03:23:04;5.88;;;2.90;;
583;SDS011;27024;54.068;12.116;2023-03-11T03:25:30;5.40;;;1.95;;
583;SDS011;27024;54.068;12.116;2023-03-11T03:27:57;7.18;;;2.45;;
583;SDS011;27024;54.068;12.116;2023-03-11T03:30:24;4.60;;;2.47;;
583;SDS011;27024;54.068;12.116;2023-03-11T03:32:51;5.25;;;2.35;;
583;SDS011;27024;54.068;12.116;2023-03-11T03:35:18;4.95;;;2.70;;
583;SDS011;27024;54.068;12.116;2023-03-11T03:37:46;5.50;;;2.10;;
583;SDS011;27024;54.068;12.116;2023-03-11T03:40:13;5.80;;;2.63;;
583;SDS011;27024;54.068;12.116;2023-03-11T03:42:40;7.15;;;2.45;;
583;SDS011;27024;54.068;12.116;2023-03-11T03:45:07;5.65;;;2.00;;
583;SDS011;27024;54.068;12.116;2023-03-11T03:47:35;6.10;;;2.10;;
583;SDS011;27024;54.068;12.116;2023-03-11T03:50:03;4.28;;;2.28;;
583;SDS011;27024;54.068;12.116;2023-03-11T03:52:33;6.90;;;2.85;;
583;SDS011;27024;54.068;12.116;2023-03-11T03:55:03;6.43;;;2.30;;
583;SDS011;27024;54.068;12.116;2023-03-11T03:57:31;5.82;;;2.25;;
583;SDS011;27024;54.068;12.116;2023-03-11T03:59:58;4.50;;;1.77;;
583;SDS011;27024;54.068;12.116;2023-03-11T04:02:25;4.38;;;2.10;;
583;SDS011;27024;54.068;12.116;2023-03-11T04:04:52;4.53;;;2.33;;
583;SDS011;27024;54.068;12.116;2023-03-11T04:07:18;4.15;;;1.58;;
583;SDS011;27024;54.068;12.116;2023-03-11T04:09:45;5.18;;;2.40;;
583;SDS011;27024;54.068;12.116;2023-03-11T04:12:12;5.15;;;2.20;;
583;SDS011;27024;54.068;12.116;2023-03-11T04:14:40;4.00;;;1.90;;
583;SDS011;27024;54.068;12.116;2023-03-11T04:17:12;3.35;;;1.77;;
583;SDS011;27024;54.068;12.116;2023-03-11T04:19:39;4.00;;;2.33;;
583;SDS011;27024;54.068;12.116;2023-03-11T04:22:06;2.78;;;1.08;;
583;SDS011;27024;54.068;12.116;2023-03-11T04:24:33;5.00;;;2.28;;
583;SDS011;27024;54.068;12.116;2023-03-11T04:27:00;5.72;;;2.20;;
583;SDS011;27024;54.068;12.116;2023-03-11T04:29:27;4.28;;;1.90;;
583;SDS011;27024;54.068;12.116;2023-03-11T04:31:53;4.40;;;2.05;;
583;SDS011;27024;54.068;12.116;2023-03-11T04:34:20;4.47;;;1.88;;
583;SDS011;27024;54.068;12.116;2023-03-11T04:36:50;4.55;;;1.65;;
583;SDS011;27024;54.068;12.116;2023-03-11T04:39:18;3.65;;;1.50;;
583;SDS011;27024;54.068;12.116;2023-03-11T04:41:45;4.38;;;2.22;;
583;SDS011;27024;54.068;12.116;2023-03-11T04:44:11;7.25;;;1.80;;
583;SDS011;27024;54.068;12.116;2023-03-11T04:46:38;4.68;;;1.95;;
583;SDS011;27024;54.068;12.116;2023-03-11T04:49:05;9.00;;;1.42;;
583;SDS011;27024;54.068;12.116;2023-03-11T04:51:32;3.60;;;1.30;;
583;SDS011;27024;54.068;12.116;2023-03-11T04:53:59;4.45;;;1.80;;
583;SDS011;27024;54.068;12.116;2023-03-11T04:56:26;4.68;;;1.80;;
583;SDS011;27024;54.068;12.116;2023-03-11T04:58:53;5.60;;;2.20;;
583;SDS011;27024;54.068;12.116;2023-03-11T05:01:19;3.42;;;1.70;;
583;SDS011;27024;54.068;12.116;2023-03-11T05:03:46;5.05;;;1.23;;
583;SDS011;27024;54.068;12.116;2023-03-11T05:06:13;2.92;;;1.50;;
583;SDS011;27024;54.068;12.116;2023-03-11T05:08:40;4.32;;;1.45;;
583;SDS011;27024;54.068;12.116;2023-03-11T05:11:07;4.40;;;2.15;;
583;SDS011;27024;54.068;12.116;2023-03-11T05:13:34;4.40;;;1.88;;
583;SDS011;27024;54.068;12.116;2023-03-11T05:16:01;4.22;;;1.73;;
583;SDS011;27024;54.068;12.116;2023-03-11T05:18:28;3.63;;;1.20;;
583;SDS011;27024;54.068;12.116;2023-03-11T05:20:57;6.43;;;1.52;;
583;SDS011;27024;54.068;12.116;2023-03-11T05:23:25;3.85;;;1.65;;
583;SDS011;27024;54.068;12.116;2023-03-11T05:25:52;4.05;;;1.85;;
583;SDS011;27024;54.068;12.116;2023-03-11T05:28:19;4.25;;;1.30;;
583;SDS011;27024;54.068;12.116;2023-03-11T05:30:46;5.53;;;1.88;;
583;SDS011;27024;54.068;12.116;2023-03-11T05:33:13;3.97;;;1.40;;
583;SDS011;27024;54.068;12.116;2023-03-11T05:35:40;4.32;;;1.70;;
583;SDS011;27024;54.068;12.116;2023-03-11T05:38:09;4.07;;;1.95;;
583;SDS011;27024;54.068;12.116;2023-03-11T05:40:36;4.03;;;2.28;;
583;SDS011;27024;54.068;12.116;2023-03-11T05:43:03;5.18;;;2.58;;
583;SDS011;27024;54.068;12.116;2023-03-11T05:45:30;3.92;;;1.70;;
583;SDS011;27024;54.068;12.116;2023-03-11T05:47:57;5.55;;;1.90;;
583;SDS011;27024;54.068;12.116;2023-03-11T05:50:24;4.40;;;2.10;;
583;SDS011;27024;54.068;12.116;2023-03-11T05:52:51;6.05;;;2.17;;
583;SDS011;27024;54.068;12.116;2023-03-11T05:55:18;4.93;;;2.58;;
583;SDS011;27024;54.068;12.116;2023-03-11T05:57:45;5.95;;;2.42;;
583;SDS011;27024;54.068;12.116;2023-03-11T06:00:12;4.90;;;2.10;;
583;SDS011;27024;54.068;12.116;2023-03-11T06:02:39;4.25;;;2.03;;
583;SDS011;27024;54.068;12.116;2023-03-11T06:05:07;3.67;;;2.00;;
583;SDS011;27024;54.068;12.116;2023-03-11T06:07:38;4.70;;;2.22;;
583;SDS011;27024;54.068;12.116;2023-03-11T06:10:05;4.30;;;2.50;;
583;SDS011;27024;54.068;12.116;2023-03-11T06:12:33;8.88;;;1.95;;
583;SDS011;27024;54.068;12.116;2023-03-11T06:15:01;3.92;;;2.00;;
583;SDS011;27024;54.068;12.116;2023-03-11T06:17:28;6.03;;;2.47;;
583;SDS011;27024;54.068;12.116;2023-03-11T06:19:55;3.80;;;1.70;;
583;SDS011;27024;54.068;12.116;2023-03-11T06:22:22;4.85;;;1.83;;
583;SDS011;27024;54.068;12.116;2023-03-11T06:24:50;4.95;;;1.88;;
583;SDS011;27024;54.068;12.116;2023-03-11T06:27:17;4.38;;;1.55;;
583;SDS011;27024;54.068;12.116;2023-03-11T06:29:44;4.45;;;2.38;;
583;SDS011;27024;54.068;12.116;2023-03-11T06:32:13;5.47;;;2.00;;
583;SDS011;27024;54.068;12.116;2023-03-11T06:34:40;3.58;;;1.70;;
583;SDS011;27024;54.068;12.116;2023-03-11T06:37:07;5.90;;;2.58;;
583;SDS011;27024;54.068;12.116;2023-03-11T06:39:34;3.75;;;2.35;;
583;SDS011;27024;54.068;12.116;2023-03-11T06:42:00;4.35;;;2.28;;
583;SDS011;27024;54.068;12.116;2023-03-11T06:44:27;4.95;;;1.40;;
583;SDS011;27024;54.068;12.116;2023-03-11T06:46:54;5.43;;;2.10;;
583;SDS011;27024;54.068;12.116;2023-03-11T06:49:21;4.65;;;1.80;;
583;SDS011;27024;54.068;12.116;2023-03-11T06:51:48;3.35;;;1.75;;
583;SDS011;27024;54.068;12.116;2023-03-11T06:54:14;3.58;;;2.13;;
583;SDS011;27024;54.068;12.116;2023-03-11T06:56:41;3.20;;;1.80;;
583;SDS011;27024;54.068;12.116;2023-03-11T06:59:08;6.57;;;2.30;;
583;SDS011;27024;54.068;12.116;2023-03-11T07:01:35;2.83;;;1.30;;
583;SDS011;27024;54.068;12.116;2023-03-11T07:04:02;3.90;;;2.13;;
583;SDS011;27024;54.068;12.116;2023-03-11T07:06:29;3.40;;;1.40;;
583;SDS011;27024;54.068;12.116;2023-03-11T07:08:56;2.97;;;1.52;;
583;SDS011;27024;54.068;12.116;2023-03-11T07:11:26;2.60;;;1.25;;
583;SDS011;27024;54.068;12.116;2023-03-11T07:13:53;4.50;;;2.15;;
583;SDS011;27024;54.068;12.116;2023-03-11T07:16:21;5.20;;;2.05;;
583;SDS011;27024;54.068;12.116;2023-03-11T07:18:50;4.32;;;1.67;;
583;SDS011;27024;54.068;12.116;2023-03-11T07:21:19;3.58;;;1.20;;
583;SDS011;27024;54.068;12.116;2023-03-11T07:23:47;2.83;;;1.52;;
583;SDS011;27024;54.068;12.116;2023-03-11T07:26:18;3.65;;;1.48;;
583;SDS011;27024;54.068;12.116;2023-03-11T07:28:45;2.63;;;1.90;;
583;SDS011;27024;54.068;12.116;2023-03-11T07:31:15;4.40;;;1.30;;
583;SDS011;27024;54.068;12.116;2023-03-11T07:33:44;5.22;;;2.40;;
583;SDS011;27024;54.068;12.116;2023-03-11T07:36:12;4.85;;;1.83;;
583;SDS011;27024;54.068;12.116;2023-03-11T07:38:45;2.80;;;1.10;;
583;SDS011;27024;54.068;12.116;2023-03-11T07:41:13;4.18;;;1.73;;
583;SDS011;27024;54.068;12.116;2023-03-11T07:43:41;3.55;;;1.73;;
583;SDS011;27024;54.068;12.116;2023-03-11T07:46:09;2.92;;;0.98;;
583;SDS011;27024;54.068;12.116;2023-03-11T07:48:39;2.75;;;0.88;;
583;SDS011;27024;54.068;12.116;2023-03-11T07:51:10;3.60;;;1.30;;
583;SDS011;27024;54.068;12.116;2023-03-11T07:53:38;5.03;;;1.65;;
583;SDS011;27024;54.068;12.116;2023-03-11T07:56:06;4.80;;;2.40;;
583;SDS011;27024;54.068;12.116;2023-03-11T07:58:34;3.67;;;2.35;;
583;SDS011;27024;54.068;12.116;2023-03-11T08:01:08;6.82;;;1.88;;
583;SDS011;27024;54.068;12.116;2023-03-11T08:03:44;4.47;;;2.90;;
583;SDS011;27024;54.068;12.116;2023-03-11T08:06:12;5.28;;;2.60;;
583;SDS011;27024;54.068;12.116;2023-03-11T08:08:47;5.53;;;2.83;;
583;SDS011;27024;54.068;12.116;2023-03-11T08:11:14;5.32;;;2.95;;
583;SDS011;27024;54.068;12.116;2023-03-11T08:13:42;5.15;;;2.83;;
583;SDS011;27024;54.068;12.116;2023-03-11T08:16:11;5.60;;;2.97;;
583;SDS011;27024;54.068;12.116;2023-03-11T08:18:40;6.30;;;3.40;;
583;SDS011;27024;54.068;12.116;2023-03-11T08:21:08;6.03;;;3.47;;
583;SDS011;27024;54.068;12.116;2023-03-11T08:23:38;9.00;;;3.60;;
583;SDS011;27024;54.068;12.116;2023-03-11T08:26:06;8.32;;;4.25;;
583;SDS011;27024;54.068;12.116;2023-03-11T08:28:35;7.85;;;5.10;;
583;SDS011;27024;54.068;12.116;2023-03-11T08:31:08;7.60;;;4.53;;
583;SDS011;27024;54.068;12.116;2023-03-11T08:33:40;9.63;;;5.10;;
583;SDS011;27024;54.068;12.116;2023-03-11T08:36:07;7.85;;;4.82;;
583;SDS011;27024;54.068;12.116;2023-03-11T08:38:34;8.63;;;4.55;;
583;SDS011;27024;54.068;12.116;2023-03-11T08:41:01;10.07;;;4.72;;
583;SDS011;27024;54.068;12.116;2023-03-11T08:43:28;10.27;;;4.90;;
583;SDS011;27024;54.068;12.116;2023-03-11T08:45:55;9.15;;;4.55;;
583;SDS011;27024;54.068;12.116;2023-03-11T08:48:21;9.40;;;5.03;;
583;SDS011;27024;54.068;12.116;2023-03-11T08:50:50;9.88;;;5.43;;
583;SDS011;27024;54.068;12.116;2023-03-11T08:53:23;12.55;;;6.30;;
583;SDS011;27024;54.068;12.116;2023-03-11T08:55:50;9.05;;;4.75;;
583;SDS011;27024;54.068;12.116;2023-03-11T08:58:18;8.80;;;4.75;;
583;SDS011;27024;54.068;12.116;2023-03-11T09:00:45;8.98;;;4.88;;
583;SDS011;27024;54.068;12.116;2023-03-11T09:03:13;9.43;;;5.35;;
583;SDS011;27024;54.068;12.116;2023-03-11T09:05:40;10.63;;;4.82;;
583;SDS011;27024;54.068;12.116;2023-03-11T09:08:07;10.30;;;5.53;;
583;SDS011;27024;54.068;12.116;2023-03-11T09:10:33;11.18;;;6.20;;
583;SDS011;27024;54.068;12.116;2023-03-11T09:13:00;10.35;;;5.18;;
583;SDS011;27024;54.068;12.116;2023-03-11T09:15:27;9.27;;;5.53;;
583;SDS011;27024;54.068;12.116;2023-03-11T09:17:54;8.23;;;4.13;;
583;SDS011;27024;54.068;12.116;2023-03-11T09:20:22;7.57;;;4.28;;
583;SDS011;27024;54.068;12.116;2023-03-11T09:22:49;10.52;;;4.70;;
583;SDS011;27024;54.068;12.116;2023-03-11T09:25:16;9.20;;;4.60;;
583;SDS011;27024;54.068;12.116;2023-03-11T09:27:43;7.63;;;4.05;;
583;SDS011;27024;54.068;12.116;2023-03-11T09:30:10;8.52;;;3.65;;
583;SDS011;27024;54.068;12.116;2023-03-11T09:32:37;7.57;;;3.88;;
583;SDS011;27024;54.068;12.116;2023-03-11T09:35:04;8.10;;;3.70;;
583;SDS011;27024;54.068;12.116;2023-03-11T09:37:31;11.45;;;4.03;;
583;SDS011;27024;54.068;12.116;2023-03-11T09:39:58;6.72;;;2.92;;
583;SDS011;27024;54.068;12.116;2023-03-11T09:42:28;6.80;;;3.30;;
583;SDS011;27024;54.068;12.116;2023-03-11T09:55:39;7.95;;;3.75;;
583;SDS011;27024;54.068;12.116;2023-03-11T09:58:11;7.57;;;3.42;;
583;SDS011;27024;54.068;12.116;2023-03-11T10:00:47;10.63;;;3.65;;
583;SDS011;27024;54.068;12.116;2023-03-11T10:16:37;7.63;;;3.65;;
583;SDS011;27024;54.068;12.116;2023-03-11T10:26:54;4.82;;;3.17;;
583;SDS011;27024;54.068;12.116;2023-03-11T10:32:12;4.95;;;2.53;;
583;SDS011;27024;54.068;12.116;2023-03-11T10:34:46;4.32;;;2.65;;
583;SDS011;27024;54.068;12.116;2023-03-11T10:37:28;4.68;;;2.13;;
583;SDS011;27024;54.068;12.116;2023-03-11T10:40:18;6.10;;;2.40;;
583;SDS011;27024;54.068;12.116;2023-03-11T10:42:52;5.43;;;2.45;;
583;SDS011;27024;54.068;12.116;2023-03-11T10:45:20;4.18;;;2.03;;
583;SDS011;27024;54.068;12.116;2023-03-11T10:47:48;4.22;;;2.38;;
583;SDS011;27024;54.068;12.116;2023-03-11T10:50:16;4.30;;;2.10;;
583;SDS011;27024;54.068;12.116;2023-03-11T10:55:33;4.60;;;2.20;;
583;SDS011;27024;54.068;12.116;2023-03-11T10:58:05;4.53;;;2.00;;
583;SDS011;27024;54.068;12.116;2023-03-11T11:00:42;4.18;;;1.77;;
583;SDS011;27024;54.068;12.116;2023-03-11T11:03:19;4.97;;;2.00;;
583;SDS011;27024;54.068;12.116;2023-03-11T11:08:47;3.05;;;1.55;;
583;SDS011;27024;54.068;12.116;2023-03-11T11:11:21;4.72;;;1.63;;
583;SDS011;27024;54.068;12.116;2023-03-11T11:13:56;3.85;;;1.95;;
583;SDS011;27024;54.068;12.116;2023-03-11T11:16:24;4.43;;;2.05;;
583;SDS011;27024;54.068;12.116;2023-03-11T11:21:32;3.22;;;1.48;;
583;SDS011;27024;54.068;12.116;2023-03-11T11:24:17;4.82;;;1.70;;
583;SDS011;27024;54.068;12.116;2023-03-11T11:29:37;2.60;;;1.33;;
583;SDS011;27024;54.068;12.116;2023-03-11T11:32:23;3.97;;;1.80;;
583;SDS011;27024;54.068;12.116;2023-03-11T11:34:58;3.95;;;2.15;;
583;SDS011;27024;54.068;12.116;2023-03-11T11:37:31;4.00;;;2.22;;
583;SDS011;27024;54.068;12.116;2023-03-11T11:40:02;4.50;;;2.60;;
583;SDS011;27024;54.068;12.116;2023-03-11T11:42:44;3.22;;;1.52;;
583;SDS011;27024;54.068;12.116;2023-03-11T11:50:42;5.18;;;1.60;;
583;SDS011;27024;54.068;12.116;2023-03-11T11:53:23;3.30;;;1.30;;
583;SDS011;27024;54.068;12.116;2023-03-11T11:55:52;2.53;;;1.02;;
583;SDS011;27024;54.068;12.116;2023-03-11T11:58:19;2.00;;;0.90;;
583;SDS011;27024;54.068;12.116;2023-03-11T12:00:56;3.10;;;1.10;;
583;SDS011;27024;54.068;12.116;2023-03-11T12:03:37;3.38;;;1.20;;
583;SDS011;27024;54.068;12.116;2023-03-11T12:06:18;3.55;;;1.23;;
583;SDS011;27024;54.068;12.116;2023-03-11T12:11:33;4.05;;;0.60;;
583;SDS011;27024;54.068;12.116;2023-03-11T12:16:59;2.28;;;0.73;;
583;SDS011;27024;54.068;12.116;2023-03-11T12:27:52;1.52;;;0.50;;
583;SDS011;27024;54.068;12.116;2023-03-11T12:30:32;2.30;;;0.52;;
583;SDS011;27024;54.068;12.116;2023-03-11T12:33:03;2.88;;;0.30;;
583;SDS011;27024;54.068;12.116;2023-03-11T12:35:39;1.85;;;0.38;;
583;SDS011;27024;54.068;12.116;2023-03-11T12:38:29;2.38;;;0.52;;
583;SDS011;27024;54.068;12.116;2023-03-11T12:40:59;3.50;;;0.50;;
583;SDS011;27024;54.068;12.116;2023-03-11T12:46:04;1.70;;;0.50;;
583;SDS011;27024;54.068;12.116;2023-03-11T12:48:42;1.77;;;0.35;;
583;SDS011;27024;54.068;12.116;2023-03-11T12:53:52;1.15;;;0.30;;
583;SDS011;27024;54.068;12.116;2023-03-11T13:07:34;1.65;;;0.40;;
583;SDS011;27024;54.068;12.116;2023-03-11T13:10:19;1.40;;;0.50;;
583;SDS011;27024;54.068;12.116;2023-03-11T13:13:01;3.33;;;0.40;;
583;SDS011;27024;54.068;12.116;2023-03-11T13:15:28;1.65;;;0.38;;
583;SDS011;27024;54.068;12.116;2023-03-11T13:30:42;1.13;;;0.20;;
583;SDS011;27024;54.068;12.116;2023-03-11T13:41:47;2.60;;;0.30;;
583;SDS011;27024;54.068;12.116;2023-03-11T13:46:46;2.35;;;0.38;;
583;SDS011;27024;54.068;12.116;2023-03-11T13:49:22;0.98;;;0.20;;
583;SDS011;27024;54.068;12.116;2023-03-11T13:51:53;4.97;;;0.40;;
583;SDS011;27024;54.068;12.116;2023-03-11T13:56:58;1.25;;;0.30;;
583;SDS011;27024;54.068;12.116;2023-03-11T13:59:27;4.40;;;0.40;;
583;SDS011;27024;54.068;12.116;2023-03-11T14:07:27;2.45;;;0.40;;
583;SDS011;27024;54.068;12.116;2023-03-11T14:10:16;2.25;;;0.60;;
583;SDS011;27024;54.068;12.116;2023-03-11T14:12:48;3.97;;;0.98;;
583;SDS011;27024;54.068;12.116;2023-03-11T14:17:54;2.42;;;0.60;;
583;SDS011;27024;54.068;12.116;2023-03-11T14:20:51;2.00;;;0.63;;
583;SDS011;27024;54.068;12.116;2023-03-11T14:23:19;3.15;;;1.00;;
583;SDS011;27024;54.068;12.116;2023-03-11T14:25:46;2.28;;;0.80;;
583;SDS011;27024;54.068;12.116;2023-03-11T14:28:19;3.17;;;0.77;;
583;SDS011;27024;54.068;12.116;2023-03-11T14:30:57;3.72;;;0.85;;
583;SDS011;27024;54.068;12.116;2023-03-11T14:33:24;2.90;;;0.90;;
583;SDS011;27024;54.068;12.116;2023-03-11T14:38:20;3.55;;;0.70;;
583;SDS011;27024;54.068;12.116;2023-03-11T14:40:49;2.40;;;0.70;;
583;SDS011;27024;54.068;12.116;2023-03-11T14:43:22;2.55;;;0.80;;
583;SDS011;27024;54.068;12.116;2023-03-11T14:45:49;3.28;;;0.80;;
583;SDS011;27024;54.068;12.116;2023-03-11T14:48:28;3.63;;;0.80;;
583;SDS011;27024;54.068;12.116;2023-03-11T14:51:01;4.05;;;1.15;;
583;SDS011;27024;54.068;12.116;2023-03-11T14:53:36;1.90;;;0.85;;
583;SDS011;27024;54.068;12.116;2023-03-11T14:56:11;2.33;;;0.73;;
583;SDS011;27024;54.068;12.116;2023-03-11T14:58:48;2.45;;;0.80;;
583;SDS011;27024;54.068;12.116;2023-03-11T15:01:34;4.90;;;1.20;;
583;SDS011;27024;54.068;12.116;2023-03-11T15:06:42;2.78;;;0.60;;
583;SDS011;27024;54.068;12.116;2023-03-11T15:09:11;4.07;;;0.70;;
583;SDS011;27024;54.068;12.116;2023-03-11T15:11:57;2.80;;;0.70;;
583;SDS011;27024;54.068;12.116;2023-03-11T15:14:26;4.60;;;0.50;;
583;SDS011;27024;54.068;12.116;2023-03-11T15:19:52;3.47;;;0.70;;
583;SDS011;27024;54.068;12.116;2023-03-11T15:22:24;4.57;;;0.85;;
583;SDS011;27024;54.068;12.116;2023-03-11T15:25:13;3.10;;;0.80;;
583;SDS011;27024;54.068;12.116;2023-03-11T15:27:42;4.20;;;1.02;;
583;SDS011;27024;54.068;12.116;2023-03-11T15:32:51;2.35;;;0.70;;
583;SDS011;27024;54.068;12.116;2023-03-11T15:38:16;4.20;;;0.80;;
583;SDS011;27024;54.068;12.116;2023-03-11T15:40:53;3.33;;;1.23;;
583;SDS011;27024;54.068;12.116;2023-03-11T15:43:28;5.57;;;1.15;;
583;SDS011;27024;54.068;12.116;2023-03-11T15:46:25;3.90;;;1.40;;
583;SDS011;27024;54.068;12.116;2023-03-11T15:48:52;6.22;;;0.90;;
583;SDS011;27024;54.068;12.116;2023-03-11T15:51:19;3.47;;;0.90;;
583;SDS011;27024;54.068;12.116;2023-03-11T15:53:46;4.45;;;1.38;;
583;SDS011;27024;54.068;12.116;2023-03-11T15:56:16;3.65;;;1.50;;
583;SDS011;27024;54.068;12.116;2023-03-11T15:58:49;3.97;;;1.67;;
583;SDS011;27024;54.068;12.116;2023-03-11T16:01:16;6.05;;;1.20;;
583;SDS011;27024;54.068;12.116;2023-03-11T16:03:48;4.68;;;1.88;;
583;SDS011;27024;54.068;12.116;2023-03-11T16:06:15;3.13;;;1.17;;
583;SDS011;27024;54.068;12.116;2023-03-11T16:08:41;3.22;;;1.10;;
583;SDS011;27024;54.068;12.116;2023-03-11T16:11:13;4.00;;;1.27;;
583;SDS011;27024;54.068;12.116;2023-03-11T16:13:40;3.03;;;0.90;;
583;SDS011;27024;54.068;12.116;2023-03-11T16:16:14;4.22;;;0.88;;
583;SDS011;27024;54.068;12.116;2023-03-11T16:18:42;4.60;;;0.90;;
583;SDS011;27024;54.068;12.116;2023-03-11T16:21:12;4.20;;;0.50;;
583;SDS011;27024;54.068;12.116;2023-03-11T16:23:44;3.58;;;0.60;;
583;SDS011;27024;54.068;12.116;2023-03-11T16:26:17;2.35;;;0.47;;
583;SDS011;27024;54.068;12.116;2023-03-11T16:28:45;3.20;;;0.55;;
583;SDS011;27024;54.068;12.116;2023-03-11T16:31:11;1.80;;;0.40;;
583;SDS011;27024;54.068;12.116;2023-03-11T16:33:38;3.03;;;0.47;;
583;SDS011;27024;54.068;12.116;2023-03-11T16:36:05;2.88;;;0.50;;
583;SDS011;27024;54.068;12.116;2023-03-11T16:38:40;1.42;;;0.30;;
583;SDS011;27024;54.068;12.116;2023-03-11T16:41:09;2.33;;;0.88;;
583;SDS011;27024;54.068;12.116;2023-03-11T16:43:36;3.53;;;0.90;;
583;SDS011;27024;54.068;12.116;2023-03-11T16:46:03;2.40;;;0.30;;
583;SDS011;27024;54.068;12.116;2023-03-11T16:48:30;2.00;;;0.82;;
583;SDS011;27024;54.068;12.116;2023-03-11T16:50:57;3.95;;;0.50;;
583;SDS011;27024;54.068;12.116;2023-03-11T16:53:24;3.35;;;0.80;;
583;SDS011;27024;54.068;12.116;2023-03-11T16:55:51;4.88;;;0.60;;
583;SDS011;27024;54.068;12.116;2023-03-11T16:58:19;2.35;;;0.60;;
583;SDS011;27024;54.068;12.116;2023-03-11T17:00:46;2.47;;;0.40;;
583;SDS011;27024;54.068;12.116;2023-03-11T17:03:13;3.15;;;0.52;;
583;SDS011;27024;54.068;12.116;2023-03-11T17:05:47;2.78;;;1.00;;
583;SDS011;27024;54.068;12.116;2023-03-11T17:08:14;4.47;;;0.90;;
583;SDS011;27024;54.068;12.116;2023-03-11T17:10:43;5.63;;;0.98;;
583;SDS011;27024;54.068;12.116;2023-03-11T17:13:12;5.43;;;0.80;;
583;SDS011;27024;54.068;12.116;2023-03-11T17:15:39;4.82;;;0.95;;
583;SDS011;27024;54.068;12.116;2023-03-11T17:18:10;4.82;;;1.33;;
583;SDS011;27024;54.068;12.116;2023-03-11T17:20:38;3.13;;;1.25;;
583;SDS011;27024;54.068;12.116;2023-03-11T17:23:06;6.88;;;1.25;;
583;SDS011;27024;54.068;12.116;2023-03-11T17:25:32;6.00;;;1.30;;
583;SDS011;27024;54.068;12.116;2023-03-11T17:27:59;5.78;;;1.23;;
583;SDS011;27024;54.068;12.116;2023-03-11T17:30:27;4.20;;;0.68;;
583;SDS011;27024;54.068;12.116;2023-03-11T17:33:02;3.10;;;1.00;;